sensor_id;sensor_type;location;lat;lon;timestamp;P1;durP1;ratioP1;P2;durP2;ratioP2
27804;SDS011;15183;51.350;11.102;2023-08-06T00:00:54;2.67;;;1.60;;
27804;SDS011;15183;51.350;11.102;2023-08-06T00:03:21;2.17;;;1.50;;
27804;SDS011;15183;51.350;11.102;2023-08-06T00:05:47;1.38;;;1.27;;
27804;SDS011;15183;51.350;11.102;2023-08-06T00:08:14;1.85;;;1.50;;
27804;SDS011;15183;51.350;11.102;2023-08-06T00:10:40;4.60;;;2.30;;
27804;SDS011;15183;51.350;11.102;2023-08-06T00:13:07;2.30;;;2.10;;
27804;SDS011;15183;51.350;11.102;2023-08-06T00:15:34;3.17;;;1.23;;
27804;SDS011;15183;51.350;11.102;2023-08-06T00:18:01;1.70;;;1.50;;
27804;SDS011;15183;51.350;11.102;2023-08-06T00:20:27;1.65;;;1.55;;
27804;SDS011;15183;51.350;11.102;2023-08-06T00:22:53;3.67;;;1.60;;
27804;SDS011;15183;51.350;11.102;2023-08-06T00:25:20;1.23;;;1.13;;
27804;SDS011;15183;51.350;11.102;2023-08-06T00:27:47;2.53;;;1.10;;
27804;SDS011;15183;51.350;11.102;2023-08-06T00:30:14;1.73;;;1.63;;
27804;SDS011;15183;51.350;11.102;2023-08-06T00:32:41;1.90;;;1.58;;
27804;SDS011;15183;51.350;11.102;2023-08-06T00:35:08;3.05;;;1.20;;
27804;SDS011;15183;51.350;11.102;2023-08-06T00:37:35;2.47;;;1.20;;
27804;SDS011;15183;51.350;11.102;2023-08-06T00:40:02;2.25;;;1.17;;
27804;SDS011;15183;51.350;11.102;2023-08-06T00:42:31;2.40;;;1.20;;
27804;SDS011;15183;51.350;11.102;2023-08-06T00:44:58;2.30;;;1.70;;
27804;SDS011;15183;51.350;11.102;2023-08-06T00:47:24;1.75;;;1.65;;
27804;SDS011;15183;51.350;11.102;2023-08-06T00:49:51;4.38;;;1.38;;
27804;SDS011;15183;51.350;11.102;2023-08-06T00:52:18;2.53;;;1.55;;
27804;SDS011;15183;51.350;11.102;2023-08-06T00:54:45;2.65;;;1.60;;
27804;SDS011;15183;51.350;11.102;2023-08-06T00:57:12;2.10;;;1.42;;
27804;SDS011;15183;51.350;11.102;2023-08-06T00:59:40;2.20;;;1.35;;
27804;SDS011;15183;51.350;11.102;2023-08-06T01:02:06;2.05;;;1.20;;
27804;SDS011;15183;51.350;11.102;2023-08-06T01:04:33;2.47;;;1.30;;
27804;SDS011;15183;51.350;11.102;2023-08-06T01:09:48;3.08;;;1.30;;
27804;SDS011;15183;51.350;11.102;2023-08-06T01:15:41;2.50;;;1.50;;
27804;SDS011;15183;51.350;11.102;2023-08-06T01:18:15;1.65;;;1.42;;
27804;SDS011;15183;51.350;11.102;2023-08-06T01:20:42;1.73;;;1.50;;
27804;SDS011;15183;51.350;11.102;2023-08-06T01:23:08;1.75;;;1.13;;
27804;SDS011;15183;51.350;11.102;2023-08-06T01:25:56;4.93;;;1.30;;
27804;SDS011;15183;51.350;11.102;2023-08-06T01:31:38;1.50;;;1.30;;
27804;SDS011;15183;51.350;11.102;2023-08-06T01:34:09;3.13;;;1.58;;
27804;SDS011;15183;51.350;11.102;2023-08-06T01:36:43;1.25;;;1.10;;
27804;SDS011;15183;51.350;11.102;2023-08-06T01:39:10;1.42;;;1.20;;
27804;SDS011;15183;51.350;11.102;2023-08-06T01:41:37;1.85;;;1.30;;
27804;SDS011;15183;51.350;11.102;2023-08-06T01:44:04;2.83;;;1.50;;
27804;SDS011;15183;51.350;11.102;2023-08-06T01:46:30;2.10;;;1.10;;
27804;SDS011;15183;51.350;11.102;2023-08-06T01:48:57;2.22;;;1.40;;
27804;SDS011;15183;51.350;11.102;2023-08-06T01:51:24;1.20;;;1.10;;
27804;SDS011;15183;51.350;11.102;2023-08-06T01:53:51;1.73;;;1.10;;
27804;SDS011;15183;51.350;11.102;2023-08-06T01:56:18;1.05;;;1.00;;
27804;SDS011;15183;51.350;11.102;2023-08-06T01:58:44;1.83;;;1.25;;
27804;SDS011;15183;51.350;11.102;2023-08-06T02:01:11;1.77;;;1.25;;
27804;SDS011;15183;51.350;11.102;2023-08-06T02:03:39;1.58;;;1.00;;
27804;SDS011;15183;51.350;11.102;2023-08-06T02:06:05;1.65;;;1.20;;
27804;SDS011;15183;51.350;11.102;2023-08-06T02:08:33;2.10;;;1.33;;
27804;SDS011;15183;51.350;11.102;2023-08-06T02:10:59;2.58;;;1.27;;
27804;SDS011;15183;51.350;11.102;2023-08-06T02:13:27;1.30;;;1.20;;
27804;SDS011;15183;51.350;11.102;2023-08-06T02:15:54;1.95;;;1.45;;
27804;SDS011;15183;51.350;11.102;2023-08-06T02:18:21;1.20;;;1.08;;
27804;SDS011;15183;51.350;11.102;2023-08-06T02:20:57;2.22;;;1.10;;
27804;SDS011;15183;51.350;11.102;2023-08-06T02:23:25;1.10;;;1.10;;
27804;SDS011;15183;51.350;11.102;2023-08-06T02:26:00;1.60;;;1.30;;
27804;SDS011;15183;51.350;11.102;2023-08-06T02:28:28;1.38;;;0.95;;
27804;SDS011;15183;51.350;11.102;2023-08-06T02:30:55;1.92;;;1.10;;
27804;SDS011;15183;51.350;11.102;2023-08-06T02:33:22;1.30;;;1.20;;
27804;SDS011;15183;51.350;11.102;2023-08-06T02:35:49;1.40;;;1.30;;
27804;SDS011;15183;51.350;11.102;2023-08-06T02:38:16;1.85;;;1.35;;
27804;SDS011;15183;51.350;11.102;2023-08-06T02:40:43;1.20;;;1.10;;
27804;SDS011;15183;51.350;11.102;2023-08-06T02:43:11;1.27;;;1.17;;
27804;SDS011;15183;51.350;11.102;2023-08-06T02:45:38;2.10;;;1.20;;
27804;SDS011;15183;51.350;11.102;2023-08-06T02:48:05;1.10;;;1.00;;
27804;SDS011;15183;51.350;11.102;2023-08-06T02:50:39;1.20;;;1.10;;
27804;SDS011;15183;51.350;11.102;2023-08-06T02:53:07;1.55;;;1.08;;
27804;SDS011;15183;51.350;11.102;2023-08-06T02:55:34;1.42;;;1.00;;
27804;SDS011;15183;51.350;11.102;2023-08-06T02:58:01;1.17;;;1.08;;
27804;SDS011;15183;51.350;11.102;2023-08-06T03:00:28;1.60;;;0.98;;
27804;SDS011;15183;51.350;11.102;2023-08-06T03:02:54;0.90;;;0.90;;
27804;SDS011;15183;51.350;11.102;2023-08-06T03:05:21;1.30;;;1.20;;
27804;SDS011;15183;51.350;11.102;2023-08-06T03:07:47;1.88;;;1.23;;
27804;SDS011;15183;51.350;11.102;2023-08-06T03:10:16;5.05;;;2.47;;
27804;SDS011;15183;51.350;11.102;2023-08-06T03:12:42;1.60;;;1.50;;
27804;SDS011;15183;51.350;11.102;2023-08-06T03:15:09;1.58;;;1.30;;
27804;SDS011;15183;51.350;11.102;2023-08-06T03:17:38;2.60;;;1.55;;
27804;SDS011;15183;51.350;11.102;2023-08-06T03:20:06;0.80;;;0.80;;
27804;SDS011;15183;51.350;11.102;2023-08-06T03:22:34;1.13;;;1.13;;
27804;SDS011;15183;51.350;11.102;2023-08-06T03:25:01;1.60;;;1.20;;
27804;SDS011;15183;51.350;11.102;2023-08-06T03:27:28;2.08;;;1.33;;
27804;SDS011;15183;51.350;11.102;2023-08-06T03:29:54;1.38;;;1.10;;
27804;SDS011;15183;51.350;11.102;2023-08-06T03:32:21;2.25;;;1.55;;
27804;SDS011;15183;51.350;11.102;2023-08-06T03:34:48;1.77;;;1.48;;
27804;SDS011;15183;51.350;11.102;2023-08-06T03:37:14;2.15;;;1.15;;
27804;SDS011;15183;51.350;11.102;2023-08-06T03:39:41;2.05;;;1.25;;
27804;SDS011;15183;51.350;11.102;2023-08-06T03:42:08;1.55;;;1.45;;
27804;SDS011;15183;51.350;11.102;2023-08-06T03:44:39;1.70;;;1.42;;
27804;SDS011;15183;51.350;11.102;2023-08-06T03:47:05;1.50;;;1.40;;
27804;SDS011;15183;51.350;11.102;2023-08-06T03:49:32;1.90;;;1.45;;
27804;SDS011;15183;51.350;11.102;2023-08-06T03:51:58;2.35;;;1.48;;
27804;SDS011;15183;51.350;11.102;2023-08-06T03:54:25;2.15;;;1.30;;
27804;SDS011;15183;51.350;11.102;2023-08-06T03:56:51;2.72;;;1.48;;
27804;SDS011;15183;51.350;11.102;2023-08-06T03:59:18;1.42;;;1.33;;
27804;SDS011;15183;51.350;11.102;2023-08-06T04:01:45;2.50;;;1.42;;
27804;SDS011;15183;51.350;11.102;2023-08-06T04:04:11;1.80;;;1.70;;
27804;SDS011;15183;51.350;11.102;2023-08-06T04:06:38;3.30;;;1.50;;
27804;SDS011;15183;51.350;11.102;2023-08-06T04:09:04;1.30;;;1.20;;
27804;SDS011;15183;51.350;11.102;2023-08-06T04:11:30;1.10;;;1.08;;
27804;SDS011;15183;51.350;11.102;2023-08-06T04:13:57;1.42;;;1.33;;
27804;SDS011;15183;51.350;11.102;2023-08-06T04:16:23;1.52;;;1.42;;
27804;SDS011;15183;51.350;11.102;2023-08-06T04:18:51;1.50;;;1.30;;
27804;SDS011;15183;51.350;11.102;2023-08-06T04:21:19;1.63;;;1.40;;
27804;SDS011;15183;51.350;11.102;2023-08-06T04:23:45;1.67;;;1.48;;
27804;SDS011;15183;51.350;11.102;2023-08-06T04:26:12;2.90;;;1.40;;
27804;SDS011;15183;51.350;11.102;2023-08-06T04:28:38;1.30;;;1.20;;
27804;SDS011;15183;51.350;11.102;2023-08-06T04:31:05;1.30;;;1.20;;
27804;SDS011;15183;51.350;11.102;2023-08-06T04:33:31;1.60;;;1.50;;
27804;SDS011;15183;51.350;11.102;2023-08-06T04:35:57;1.42;;;1.30;;
27804;SDS011;15183;51.350;11.102;2023-08-06T04:38:25;1.50;;;1.40;;
27804;SDS011;15183;51.350;11.102;2023-08-06T04:40:52;1.55;;;1.45;;
27804;SDS011;15183;51.350;11.102;2023-08-06T04:43:19;1.98;;;1.40;;
27804;SDS011;15183;51.350;11.102;2023-08-06T04:45:46;1.70;;;1.60;;
27804;SDS011;15183;51.350;11.102;2023-08-06T04:48:17;1.20;;;1.10;;
27804;SDS011;15183;51.350;11.102;2023-08-06T04:50:44;1.92;;;1.60;;
27804;SDS011;15183;51.350;11.102;2023-08-06T04:53:12;1.60;;;1.30;;
27804;SDS011;15183;51.350;11.102;2023-08-06T04:55:39;1.15;;;1.05;;
27804;SDS011;15183;51.350;11.102;2023-08-06T04:58:05;1.80;;;1.38;;
27804;SDS011;15183;51.350;11.102;2023-08-06T05:00:33;2.75;;;1.38;;
27804;SDS011;15183;51.350;11.102;2023-08-06T05:02:59;1.60;;;1.27;;
27804;SDS011;15183;51.350;11.102;2023-08-06T05:05:27;1.17;;;1.08;;
27804;SDS011;15183;51.350;11.102;2023-08-06T05:07:54;2.95;;;1.50;;
27804;SDS011;15183;51.350;11.102;2023-08-06T05:10:25;1.17;;;1.08;;
27804;SDS011;15183;51.350;11.102;2023-08-06T05:12:52;4.15;;;1.17;;
27804;SDS011;15183;51.350;11.102;2023-08-06T05:15:19;1.92;;;1.13;;
27804;SDS011;15183;51.350;11.102;2023-08-06T05:17:46;1.52;;;1.25;;
27804;SDS011;15183;51.350;11.102;2023-08-06T05:20:13;1.05;;;1.05;;
27804;SDS011;15183;51.350;11.102;2023-08-06T05:22:40;1.30;;;1.20;;
27804;SDS011;15183;51.350;11.102;2023-08-06T05:25:06;3.45;;;1.52;;
27804;SDS011;15183;51.350;11.102;2023-08-06T05:27:33;1.10;;;1.00;;
27804;SDS011;15183;51.350;11.102;2023-08-06T05:30:00;1.10;;;1.00;;
27804;SDS011;15183;51.350;11.102;2023-08-06T05:32:26;1.20;;;1.10;;
27804;SDS011;15183;51.350;11.102;2023-08-06T05:34:53;1.33;;;1.23;;
27804;SDS011;15183;51.350;11.102;2023-08-06T05:37:19;1.73;;;1.20;;
27804;SDS011;15183;51.350;11.102;2023-08-06T05:39:46;1.55;;;1.27;;
27804;SDS011;15183;51.350;11.102;2023-08-06T05:42:13;2.05;;;1.30;;
27804;SDS011;15183;51.350;11.102;2023-08-06T05:44:40;1.35;;;1.13;;
27804;SDS011;15183;51.350;11.102;2023-08-06T05:47:06;1.27;;;1.17;;
27804;SDS011;15183;51.350;11.102;2023-08-06T05:49:33;1.00;;;1.00;;
27804;SDS011;15183;51.350;11.102;2023-08-06T05:52:00;1.67;;;1.45;;
27804;SDS011;15183;51.350;11.102;2023-08-06T05:54:26;2.80;;;2.10;;
27804;SDS011;15183;51.350;11.102;2023-08-06T05:56:53;3.25;;;2.70;;
27804;SDS011;15183;51.350;11.102;2023-08-06T05:59:19;1.95;;;1.85;;
27804;SDS011;15183;51.350;11.102;2023-08-06T06:01:45;5.25;;;4.35;;
27804;SDS011;15183;51.350;11.102;2023-08-06T06:04:12;2.88;;;2.55;;
27804;SDS011;15183;51.350;11.102;2023-08-06T06:06:38;3.97;;;1.75;;
27804;SDS011;15183;51.350;11.102;2023-08-06T06:09:05;1.83;;;1.73;;
27804;SDS011;15183;51.350;11.102;2023-08-06T06:11:31;2.38;;;2.17;;
27804;SDS011;15183;51.350;11.102;2023-08-06T06:13:58;1.90;;;1.80;;
27804;SDS011;15183;51.350;11.102;2023-08-06T06:16:24;2.47;;;2.28;;
27804;SDS011;15183;51.350;11.102;2023-08-06T06:18:51;2.25;;;2.05;;
27804;SDS011;15183;51.350;11.102;2023-08-06T06:21:19;1.85;;;1.73;;
27804;SDS011;15183;51.350;11.102;2023-08-06T06:23:47;1.67;;;1.58;;
27804;SDS011;15183;51.350;11.102;2023-08-06T06:26:13;3.22;;;2.35;;
27804;SDS011;15183;51.350;11.102;2023-08-06T06:28:40;1.75;;;1.65;;
27804;SDS011;15183;51.350;11.102;2023-08-06T06:31:08;1.50;;;1.40;;
27804;SDS011;15183;51.350;11.102;2023-08-06T06:33:35;1.60;;;1.50;;
27804;SDS011;15183;51.350;11.102;2023-08-06T06:36:01;1.10;;;1.10;;
27804;SDS011;15183;51.350;11.102;2023-08-06T06:38:29;1.42;;;1.17;;
27804;SDS011;15183;51.350;11.102;2023-08-06T06:40:56;1.02;;;0.98;;
27804;SDS011;15183;51.350;11.102;2023-08-06T06:43:23;1.67;;;1.40;;
27804;SDS011;15183;51.350;11.102;2023-08-06T06:45:53;3.70;;;1.27;;
27804;SDS011;15183;51.350;11.102;2023-08-06T06:48:27;1.40;;;1.30;;
27804;SDS011;15183;51.350;11.102;2023-08-06T06:50:56;1.88;;;1.60;;
27804;SDS011;15183;51.350;11.102;2023-08-06T06:53:23;2.35;;;1.98;;
27804;SDS011;15183;51.350;11.102;2023-08-06T06:55:53;3.08;;;2.72;;
27804;SDS011;15183;51.350;11.102;2023-08-06T06:58:20;2.92;;;2.35;;
27804;SDS011;15183;51.350;11.102;2023-08-06T07:00:47;2.42;;;2.22;;
27804;SDS011;15183;51.350;11.102;2023-08-06T07:03:16;2.40;;;1.98;;
27804;SDS011;15183;51.350;11.102;2023-08-06T07:05:43;2.10;;;1.90;;
27804;SDS011;15183;51.350;11.102;2023-08-06T07:08:11;1.67;;;1.40;;
27804;SDS011;15183;51.350;11.102;2023-08-06T07:10:41;1.02;;;0.93;;
27804;SDS011;15183;51.350;11.102;2023-08-06T07:13:08;1.60;;;1.50;;
27804;SDS011;15183;51.350;11.102;2023-08-06T07:15:35;2.40;;;2.00;;
27804;SDS011;15183;51.350;11.102;2023-08-06T07:18:02;2.90;;;1.92;;
27804;SDS011;15183;51.350;11.102;2023-08-06T07:20:29;2.85;;;1.70;;
27804;SDS011;15183;51.350;11.102;2023-08-06T07:22:58;1.73;;;1.52;;
27804;SDS011;15183;51.350;11.102;2023-08-06T07:25:24;2.08;;;1.60;;
27804;SDS011;15183;51.350;11.102;2023-08-06T07:27:51;3.95;;;1.60;;
27804;SDS011;15183;51.350;11.102;2023-08-06T07:30:17;1.70;;;1.60;;
27804;SDS011;15183;51.350;11.102;2023-08-06T07:32:44;2.17;;;1.20;;
27804;SDS011;15183;51.350;11.102;2023-08-06T07:35:11;4.75;;;3.42;;
27804;SDS011;15183;51.350;11.102;2023-08-06T07:37:38;2.38;;;2.10;;
27804;SDS011;15183;51.350;11.102;2023-08-06T07:40:06;2.15;;;2.00;;
27804;SDS011;15183;51.350;11.102;2023-08-06T07:42:34;1.67;;;1.58;;
27804;SDS011;15183;51.350;11.102;2023-08-06T07:45:01;4.95;;;1.95;;
27804;SDS011;15183;51.350;11.102;2023-08-06T07:47:28;2.30;;;2.08;;
27804;SDS011;15183;51.350;11.102;2023-08-06T07:49:55;3.05;;;2.75;;
27804;SDS011;15183;51.350;11.102;2023-08-06T07:52:21;2.40;;;1.73;;
27804;SDS011;15183;51.350;11.102;2023-08-06T07:54:48;2.03;;;1.85;;
27804;SDS011;15183;51.350;11.102;2023-08-06T07:57:14;3.00;;;2.72;;
27804;SDS011;15183;51.350;11.102;2023-08-06T07:59:41;6.68;;;5.53;;
27804;SDS011;15183;51.350;11.102;2023-08-06T08:02:08;3.25;;;3.03;;
27804;SDS011;15183;51.350;11.102;2023-08-06T08:04:34;4.32;;;3.83;;
27804;SDS011;15183;51.350;11.102;2023-08-06T08:07:01;3.22;;;2.92;;
27804;SDS011;15183;51.350;11.102;2023-08-06T08:09:27;4.15;;;2.60;;
27804;SDS011;15183;51.350;11.102;2023-08-06T08:11:54;2.60;;;2.22;;
27804;SDS011;15183;51.350;11.102;2023-08-06T08:14:22;4.90;;;2.20;;
27804;SDS011;15183;51.350;11.102;2023-08-06T08:16:49;2.22;;;2.00;;
27804;SDS011;15183;51.350;11.102;2023-08-06T08:19:15;3.88;;;2.90;;
27804;SDS011;15183;51.350;11.102;2023-08-06T08:21:42;2.97;;;2.75;;
27804;SDS011;15183;51.350;11.102;2023-08-06T08:24:09;3.00;;;1.95;;
27804;SDS011;15183;51.350;11.102;2023-08-06T08:26:36;3.15;;;1.70;;
27804;SDS011;15183;51.350;11.102;2023-08-06T08:29:03;1.85;;;1.50;;
27804;SDS011;15183;51.350;11.102;2023-08-06T08:31:29;1.45;;;1.30;;
27804;SDS011;15183;51.350;11.102;2023-08-06T08:33:56;1.50;;;1.27;;
27804;SDS011;15183;51.350;11.102;2023-08-06T08:36:23;2.00;;;1.35;;
27804;SDS011;15183;51.350;11.102;2023-08-06T08:38:50;3.40;;;1.40;;
27804;SDS011;15183;51.350;11.102;2023-08-06T08:41:19;2.92;;;1.67;;
27804;SDS011;15183;51.350;11.102;2023-08-06T08:43:47;1.80;;;1.35;;
27804;SDS011;15183;51.350;11.102;2023-08-06T08:46:19;2.63;;;1.52;;
27804;SDS011;15183;51.350;11.102;2023-08-06T08:48:46;1.63;;;1.27;;
27804;SDS011;15183;51.350;11.102;2023-08-06T08:51:13;1.63;;;1.52;;
27804;SDS011;15183;51.350;11.102;2023-08-06T08:53:42;1.90;;;1.10;;
27804;SDS011;15183;51.350;11.102;2023-08-06T08:56:12;1.88;;;1.60;;
27804;SDS011;15183;51.350;11.102;2023-08-06T08:58:40;1.80;;;1.67;;
27804;SDS011;15183;51.350;11.102;2023-08-06T09:01:07;1.95;;;1.75;;
27804;SDS011;15183;51.350;11.102;2023-08-06T09:03:36;3.03;;;1.30;;
27804;SDS011;15183;51.350;11.102;2023-08-06T09:06:04;1.73;;;1.20;;
27804;SDS011;15183;51.350;11.102;2023-08-06T09:08:36;4.43;;;1.25;;
27804;SDS011;15183;51.350;11.102;2023-08-06T09:11:16;1.08;;;1.05;;
27804;SDS011;15183;51.350;11.102;2023-08-06T09:13:46;3.85;;;1.42;;
27804;SDS011;15183;51.350;11.102;2023-08-06T09:16:14;1.50;;;1.40;;
27804;SDS011;15183;51.350;11.102;2023-08-06T09:18:40;1.60;;;1.50;;
27804;SDS011;15183;51.350;11.102;2023-08-06T09:21:07;3.58;;;1.30;;
27804;SDS011;15183;51.350;11.102;2023-08-06T09:23:41;1.17;;;1.08;;
27804;SDS011;15183;51.350;11.102;2023-08-06T09:26:10;1.38;;;1.10;;
27804;SDS011;15183;51.350;11.102;2023-08-06T09:28:39;1.85;;;1.38;;
27804;SDS011;15183;51.350;11.102;2023-08-06T09:31:08;1.00;;;1.00;;
27804;SDS011;15183;51.350;11.102;2023-08-06T09:33:36;2.08;;;1.83;;
27804;SDS011;15183;51.350;11.102;2023-08-06T09:36:10;3.25;;;1.23;;
27804;SDS011;15183;51.350;11.102;2023-08-06T09:38:39;1.60;;;1.50;;
27804;SDS011;15183;51.350;11.102;2023-08-06T09:41:07;1.52;;;1.20;;
27804;SDS011;15183;51.350;11.102;2023-08-06T09:43:43;1.40;;;1.30;;
27804;SDS011;15183;51.350;11.102;2023-08-06T09:46:13;2.33;;;1.92;;
27804;SDS011;15183;51.350;11.102;2023-08-06T09:48:45;1.83;;;1.40;;
27804;SDS011;15183;51.350;11.102;2023-08-06T09:51:12;3.83;;;1.40;;
27804;SDS011;15183;51.350;11.102;2023-08-06T09:53:40;1.80;;;1.40;;
27804;SDS011;15183;51.350;11.102;2023-08-06T09:56:07;3.53;;;2.28;;
27804;SDS011;15183;51.350;11.102;2023-08-06T09:58:35;4.43;;;1.65;;
27804;SDS011;15183;51.350;11.102;2023-08-06T10:01:03;1.60;;;1.42;;
27804;SDS011;15183;51.350;11.102;2023-08-06T10:03:31;2.00;;;1.40;;
27804;SDS011;15183;51.350;11.102;2023-08-06T10:05:59;1.88;;;1.77;;
27804;SDS011;15183;51.350;11.102;2023-08-06T10:08:28;1.40;;;1.30;;
27804;SDS011;15183;51.350;11.102;2023-08-06T10:10:54;1.60;;;1.45;;
27804;SDS011;15183;51.350;11.102;2023-08-06T10:13:23;2.97;;;2.67;;
27804;SDS011;15183;51.350;11.102;2023-08-06T10:15:50;2.83;;;1.90;;
27804;SDS011;15183;51.350;11.102;2023-08-06T10:18:17;3.17;;;2.72;;
27804;SDS011;15183;51.350;11.102;2023-08-06T10:20:47;1.73;;;1.60;;
27804;SDS011;15183;51.350;11.102;2023-08-06T10:23:15;2.50;;;2.28;;
27804;SDS011;15183;51.350;11.102;2023-08-06T10:25:42;2.50;;;2.00;;
27804;SDS011;15183;51.350;11.102;2023-08-06T10:28:09;1.92;;;1.80;;
27804;SDS011;15183;51.350;11.102;2023-08-06T10:30:47;2.13;;;1.90;;
27804;SDS011;15183;51.350;11.102;2023-08-06T10:33:14;1.20;;;1.10;;
27804;SDS011;15183;51.350;11.102;2023-08-06T10:35:45;1.10;;;1.00;;
27804;SDS011;15183;51.350;11.102;2023-08-06T10:38:21;1.45;;;1.17;;
27804;SDS011;15183;51.350;11.102;2023-08-06T10:43:26;1.85;;;1.45;;
27804;SDS011;15183;51.350;11.102;2023-08-06T10:46:01;2.10;;;1.20;;
27804;SDS011;15183;51.350;11.102;2023-08-06T10:48:35;3.15;;;1.70;;
27804;SDS011;15183;51.350;11.102;2023-08-06T10:51:13;1.50;;;1.40;;
27804;SDS011;15183;51.350;11.102;2023-08-06T10:53:58;1.38;;;1.27;;
27804;SDS011;15183;51.350;11.102;2023-08-06T10:56:25;3.55;;;2.13;;
27804;SDS011;15183;51.350;11.102;2023-08-06T10:58:56;2.28;;;2.08;;
27804;SDS011;15183;51.350;11.102;2023-08-06T11:01:23;2.45;;;2.17;;
27804;SDS011;15183;51.350;11.102;2023-08-06T11:03:50;1.20;;;1.10;;
27804;SDS011;15183;51.350;11.102;2023-08-06T11:06:21;0.90;;;0.90;;
27804;SDS011;15183;51.350;11.102;2023-08-06T11:08:51;0.88;;;0.77;;
27804;SDS011;15183;51.350;11.102;2023-08-06T11:11:20;1.13;;;0.80;;
27804;SDS011;15183;51.350;11.102;2023-08-06T11:13:49;3.58;;;1.00;;
27804;SDS011;15183;51.350;11.102;2023-08-06T11:16:18;1.38;;;1.20;;
27804;SDS011;15183;51.350;11.102;2023-08-06T11:18:47;0.95;;;0.95;;
27804;SDS011;15183;51.350;11.102;2023-08-06T11:21:14;1.35;;;1.25;;
27804;SDS011;15183;51.350;11.102;2023-08-06T11:23:43;1.10;;;1.00;;
27804;SDS011;15183;51.350;11.102;2023-08-06T11:26:10;1.60;;;1.48;;
27804;SDS011;15183;51.350;11.102;2023-08-06T11:28:38;2.08;;;1.67;;
27804;SDS011;15183;51.350;11.102;2023-08-06T11:31:05;2.78;;;1.92;;
27804;SDS011;15183;51.350;11.102;2023-08-06T11:33:33;3.00;;;1.75;;
27804;SDS011;15183;51.350;11.102;2023-08-06T11:36:01;1.90;;;1.00;;
27804;SDS011;15183;51.350;11.102;2023-08-06T11:38:28;1.15;;;1.05;;
27804;SDS011;15183;51.350;11.102;2023-08-06T11:40:56;1.35;;;1.00;;
27804;SDS011;15183;51.350;11.102;2023-08-06T11:43:23;1.10;;;1.00;;
27804;SDS011;15183;51.350;11.102;2023-08-06T11:45:49;1.27;;;1.10;;
27804;SDS011;15183;51.350;11.102;2023-08-06T11:48:18;0.88;;;0.88;;
27804;SDS011;15183;51.350;11.102;2023-08-06T11:50:45;2.50;;;1.13;;
27804;SDS011;15183;51.350;11.102;2023-08-06T11:53:14;6.28;;;1.00;;
27804;SDS011;15183;51.350;11.102;2023-08-06T11:55:42;1.65;;;1.05;;
27804;SDS011;15183;51.350;11.102;2023-08-06T11:58:09;1.30;;;1.20;;
27804;SDS011;15183;51.350;11.102;2023-08-06T12:00:38;0.93;;;0.90;;
27804;SDS011;15183;51.350;11.102;2023-08-06T12:03:05;1.33;;;0.77;;
27804;SDS011;15183;51.350;11.102;2023-08-06T12:05:32;0.63;;;0.63;;
27804;SDS011;15183;51.350;11.102;2023-08-06T12:07:59;1.00;;;0.90;;
27804;SDS011;15183;51.350;11.102;2023-08-06T12:10:28;0.70;;;0.70;;
27804;SDS011;15183;51.350;11.102;2023-08-06T12:12:57;1.00;;;0.70;;
27804;SDS011;15183;51.350;11.102;2023-08-06T12:15:25;3.17;;;1.50;;
27804;SDS011;15183;51.350;11.102;2023-08-06T12:17:52;1.30;;;1.20;;
27804;SDS011;15183;51.350;11.102;2023-08-06T12:20:19;1.17;;;1.10;;
27804;SDS011;15183;51.350;11.102;2023-08-06T12:22:45;2.78;;;1.92;;
27804;SDS011;15183;51.350;11.102;2023-08-06T12:25:13;5.00;;;2.80;;
27804;SDS011;15183;51.350;11.102;2023-08-06T12:27:44;1.92;;;1.50;;
27804;SDS011;15183;51.350;11.102;2023-08-06T12:30:11;0.90;;;0.88;;
27804;SDS011;15183;51.350;11.102;2023-08-06T12:32:39;0.80;;;0.80;;
27804;SDS011;15183;51.350;11.102;2023-08-06T12:35:06;1.20;;;1.10;;
27804;SDS011;15183;51.350;11.102;2023-08-06T12:37:33;1.80;;;1.08;;
27804;SDS011;15183;51.350;11.102;2023-08-06T12:40:00;1.20;;;0.90;;
27804;SDS011;15183;51.350;11.102;2023-08-06T12:42:27;0.65;;;0.65;;
27804;SDS011;15183;51.350;11.102;2023-08-06T12:44:53;0.82;;;0.82;;
27804;SDS011;15183;51.350;11.102;2023-08-06T12:47:23;0.82;;;0.70;;
27804;SDS011;15183;51.350;11.102;2023-08-06T12:49:49;1.88;;;1.67;;
27804;SDS011;15183;51.350;11.102;2023-08-06T12:52:16;4.00;;;2.17;;
27804;SDS011;15183;51.350;11.102;2023-08-06T12:54:45;2.05;;;1.10;;
27804;SDS011;15183;51.350;11.102;2023-08-06T12:57:12;1.45;;;1.35;;
27804;SDS011;15183;51.350;11.102;2023-08-06T12:59:38;1.25;;;0.90;;
27804;SDS011;15183;51.350;11.102;2023-08-06T13:02:05;2.78;;;0.80;;
27804;SDS011;15183;51.350;11.102;2023-08-06T13:04:32;0.93;;;0.90;;
27804;SDS011;15183;51.350;11.102;2023-08-06T13:06:59;1.08;;;0.80;;
27804;SDS011;15183;51.350;11.102;2023-08-06T13:09:26;1.10;;;0.80;;
27804;SDS011;15183;51.350;11.102;2023-08-06T13:11:53;2.70;;;0.93;;
27804;SDS011;15183;51.350;11.102;2023-08-06T13:14:19;0.77;;;0.77;;
27804;SDS011;15183;51.350;11.102;2023-08-06T13:16:46;1.52;;;0.70;;
27804;SDS011;15183;51.350;11.102;2023-08-06T13:19:13;1.95;;;0.80;;
27804;SDS011;15183;51.350;11.102;2023-08-06T13:24:06;0.85;;;0.75;;
27804;SDS011;15183;51.350;11.102;2023-08-06T13:26:33;0.80;;;0.80;;
27804;SDS011;15183;51.350;11.102;2023-08-06T13:29:01;3.13;;;1.05;;
27804;SDS011;15183;51.350;11.102;2023-08-06T13:31:28;1.55;;;0.80;;
27804;SDS011;15183;51.350;11.102;2023-08-06T13:33:55;1.10;;;0.80;;
27804;SDS011;15183;51.350;11.102;2023-08-06T13:36:24;0.82;;;0.80;;
27804;SDS011;15183;51.350;11.102;2023-08-06T13:38:52;0.90;;;0.75;;
27804;SDS011;15183;51.350;11.102;2023-08-06T13:41:19;1.85;;;0.70;;
27804;SDS011;15183;51.350;11.102;2023-08-06T13:43:46;0.88;;;0.88;;
27804;SDS011;15183;51.350;11.102;2023-08-06T13:46:13;1.05;;;0.80;;
27804;SDS011;15183;51.350;11.102;2023-08-06T13:48:44;0.93;;;0.80;;
27804;SDS011;15183;51.350;11.102;2023-08-06T13:51:13;2.83;;;0.60;;
27804;SDS011;15183;51.350;11.102;2023-08-06T13:53:39;0.90;;;0.70;;
27804;SDS011;15183;51.350;11.102;2023-08-06T13:56:09;2.03;;;1.20;;
27804;SDS011;15183;51.350;11.102;2023-08-06T13:58:37;1.75;;;1.40;;
27804;SDS011;15183;51.350;11.102;2023-08-06T14:01:04;1.00;;;0.73;;
27804;SDS011;15183;51.350;11.102;2023-08-06T14:03:32;1.10;;;1.00;;
27804;SDS011;15183;51.350;11.102;2023-08-06T14:05:59;1.95;;;1.00;;
27804;SDS011;15183;51.350;11.102;2023-08-06T14:08:26;1.02;;;0.77;;
27804;SDS011;15183;51.350;11.102;2023-08-06T14:10:56;1.63;;;0.88;;
27804;SDS011;15183;51.350;11.102;2023-08-06T14:13:23;1.77;;;1.05;;
27804;SDS011;15183;51.350;11.102;2023-08-06T14:15:49;0.95;;;0.70;;
27804;SDS011;15183;51.350;11.102;2023-08-06T14:18:16;1.50;;;0.80;;
27804;SDS011;15183;51.350;11.102;2023-08-06T14:20:43;1.33;;;0.90;;
27804;SDS011;15183;51.350;11.102;2023-08-06T14:23:11;1.35;;;1.17;;
27804;SDS011;15183;51.350;11.102;2023-08-06T14:25:38;3.75;;;1.30;;
27804;SDS011;15183;51.350;11.102;2023-08-06T14:28:05;1.80;;;0.82;;
27804;SDS011;15183;51.350;11.102;2023-08-06T14:30:34;5.63;;;1.00;;
27804;SDS011;15183;51.350;11.102;2023-08-06T14:33:02;1.40;;;0.95;;
27804;SDS011;15183;51.350;11.102;2023-08-06T14:35:29;1.42;;;1.02;;
27804;SDS011;15183;51.350;11.102;2023-08-06T14:37:56;0.80;;;0.80;;
27804;SDS011;15183;51.350;11.102;2023-08-06T14:40:22;2.05;;;0.98;;
27804;SDS011;15183;51.350;11.102;2023-08-06T14:42:48;3.03;;;1.00;;
27804;SDS011;15183;51.350;11.102;2023-08-06T14:45:15;1.38;;;1.00;;
27804;SDS011;15183;51.350;11.102;2023-08-06T14:47:43;1.20;;;1.02;;
27804;SDS011;15183;51.350;11.102;2023-08-06T14:50:09;1.60;;;1.50;;